createdAt,value
2019-06-07T00:00:40.082Z,16.24
2019-06-07T00:01:35.947Z,16.17
2019-06-07T00:02:36.021Z,16.15
2019-06-07T00:03:35.979Z,16.26
2019-06-07T00:04:35.978Z,16.17
2019-06-07T00:05:35.926Z,16.15
2019-06-07T00:06:35.935Z,16.15
2019-06-07T00:07:35.888Z,16.16
2019-06-07T00:08:35.902Z,16.12
2019-06-07T00:09:35.868Z,16.10
2019-06-07T00:10:37.134Z,16.16
2019-06-07T00:11:35.889Z,16.16
2019-06-07T00:12:35.837Z,16.16
2019-06-07T00:13:35.867Z,16.15
2019-06-07T00:14:35.806Z,16.15
2019-06-07T00:15:35.820Z,16.13
2019-06-07T00:16:35.824Z,16.08
2019-06-07T00:17:35.833Z,16.01
2019-06-07T00:18:35.773Z,16.04
2019-06-07T00:19:35.817Z,16.05
2019-06-07T00:20:35.755Z,16.08
2019-06-07T00:22:13.678Z,15.98
2019-06-07T00:22:36.744Z,15.97
2019-06-07T00:23:35.708Z,15.88
2019-06-07T00:24:35.912Z,15.94
2019-06-07T00:25:35.704Z,15.94
2019-06-07T00:26:56.419Z,15.98
2019-06-07T00:27:36.679Z,15.94
2019-06-07T00:28:35.674Z,15.95
2019-06-07T00:29:35.648Z,15.97
2019-06-07T00:30:50.174Z,15.95
2019-06-07T00:31:36.655Z,15.95
2019-06-07T00:32:35.613Z,15.97
2019-06-07T00:33:35.613Z,15.98
2019-06-07T00:34:35.596Z,15.90
2019-06-07T00:35:35.624Z,15.86
2019-06-07T00:36:35.595Z,15.79
2019-06-07T00:37:35.596Z,15.79
2019-06-07T00:38:35.563Z,15.80
2019-06-07T00:39:35.574Z,15.83
2019-06-07T00:40:35.549Z,15.80
2019-06-07T00:41:35.526Z,15.76
2019-06-07T00:42:35.503Z,15.73
2019-06-07T00:43:35.505Z,15.73
2019-06-07T00:44:35.503Z,15.62
2019-06-07T00:45:35.481Z,15.59
2019-06-07T00:46:35.477Z,15.64
2019-06-07T00:47:35.527Z,15.65
2019-06-07T00:48:35.445Z,15.62
2019-06-07T00:49:41.090Z,15.64
2019-06-07T00:50:36.431Z,15.64
2019-06-07T00:51:49.926Z,15.54
2019-06-07T00:53:36.391Z,15.55
2019-06-07T00:54:35.413Z,15.58
2019-06-07T00:55:35.375Z,15.58
2019-06-07T00:56:35.356Z,15.52
2019-06-07T00:57:35.371Z,15.46
2019-06-07T00:58:35.367Z,15.44
2019-06-07T00:59:35.324Z,15.42
2019-06-07T01:00:35.415Z,15.35
2019-06-07T01:01:35.317Z,15.36
2019-06-07T01:02:35.328Z,15.33
2019-06-07T01:03:35.305Z,15.35
2019-06-07T01:04:35.315Z,15.31
2019-06-07T01:05:35.301Z,15.28
2019-06-07T01:06:35.262Z,15.35
2019-06-07T01:07:35.262Z,15.28
2019-06-07T01:08:35.238Z,15.22
2019-06-07T01:09:35.231Z,15.24
2019-06-07T01:10:52.200Z,15.28
2019-06-07T01:11:36.211Z,15.25
2019-06-07T01:12:35.252Z,15.25
2019-06-07T01:13:35.179Z,15.06
2019-06-07T01:14:35.244Z,15.09
2019-06-07T01:15:35.173Z,15.06
2019-06-07T01:16:55.253Z,15.15
2019-06-07T01:17:59.702Z,15.06
2019-06-07T01:18:42.846Z,15.07
2019-06-07T01:19:36.128Z,15.07
2019-06-07T01:20:35.103Z,14.99
2019-06-07T01:21:35.180Z,15.00
2019-06-07T01:22:35.123Z,14.97
2019-06-07T01:24:05.346Z,14.96
2019-06-07T01:24:36.125Z,14.91
2019-06-07T01:25:35.052Z,14.84
2019-06-07T01:26:35.078Z,14.89
2019-06-07T01:27:35.088Z,14.88
2019-06-07T01:28:35.066Z,14.85
2019-06-07T01:29:35.080Z,14.89
2019-06-07T01:30:35.013Z,14.77
2019-06-07T01:31:35.048Z,14.72
2019-06-07T01:32:35.001Z,14.70
2019-06-07T01:33:50.346Z,14.77
2019-06-07T01:34:35.959Z,14.78
2019-06-07T01:35:34.993Z,14.77
2019-06-07T01:36:34.934Z,14.73
2019-06-07T01:37:34.927Z,14.62
2019-06-07T01:38:34.916Z,14.60
2019-06-07T01:39:34.900Z,14.66
2019-06-07T01:40:34.885Z,14.60
2019-06-07T01:41:34.884Z,14.62
2019-06-07T01:42:34.901Z,14.58
2019-06-07T01:43:34.855Z,14.47
2019-06-07T01:44:34.859Z,14.50
2019-06-07T01:45:34.869Z,14.53
2019-06-07T01:46:34.821Z,14.45
2019-06-07T01:47:34.817Z,14.50
2019-06-07T01:48:49.150Z,14.45
2019-06-07T01:49:35.824Z,14.33
2019-06-07T01:50:34.795Z,14.45
2019-06-07T01:51:35.485Z,14.33
2019-06-07T01:52:34.764Z,14.36
2019-06-07T01:53:34.744Z,14.35
2019-06-07T01:54:55.939Z,14.36
2019-06-07T01:55:35.725Z,14.30
2019-06-07T01:56:34.739Z,14.26
2019-06-07T01:57:47.387Z,14.25
2019-06-07T01:58:35.690Z,14.30
2019-06-07T01:59:34.726Z,14.28
2019-06-07T02:00:34.684Z,14.23
2019-06-07T02:01:35.430Z,14.25
2019-06-07T02:02:34.681Z,14.29
2019-06-07T02:03:34.632Z,14.20
2019-06-07T02:04:34.630Z,14.18
2019-06-07T02:05:34.626Z,14.22
2019-06-07T02:06:34.631Z,14.17
2019-06-07T02:07:34.647Z,14.25
2019-06-07T02:08:34.645Z,14.23
2019-06-07T02:09:34.575Z,14.20
2019-06-07T02:10:34.566Z,14.26
2019-06-07T02:11:34.600Z,14.20
2019-06-07T02:12:42.928Z,14.18
2019-06-07T02:13:35.527Z,14.15
2019-06-07T02:14:34.559Z,14.25
2019-06-07T02:15:36.764Z,14.18
2019-06-07T02:16:34.494Z,14.14
2019-06-07T02:17:34.584Z,14.26
2019-06-07T02:18:35.122Z,14.18
2019-06-07T02:19:34.526Z,14.14
2019-06-07T02:20:34.796Z,14.18
2019-06-07T02:21:34.785Z,14.12
2019-06-07T02:22:34.507Z,14.23
2019-06-07T02:23:34.426Z,14.11
2019-06-07T02:24:35.984Z,14.20
2019-06-07T02:25:42.531Z,14.18
2019-06-07T02:26:35.414Z,14.11
2019-06-07T02:27:34.482Z,14.15
2019-06-07T02:28:44.678Z,14.15
2019-06-07T02:29:35.369Z,14.18
2019-06-07T02:30:43.988Z,14.05
2019-06-07T02:31:39.116Z,14.08
2019-06-07T02:32:36.790Z,14.00
2019-06-07T02:33:40.012Z,13.97
2019-06-07T02:34:39.086Z,14.05
2019-06-07T02:35:40.720Z,14.07
2019-06-07T02:36:41.321Z,13.96
2019-06-07T02:37:37.041Z,13.95
2019-06-07T02:38:37.276Z,13.92
2019-06-07T02:39:38.053Z,13.83
2019-06-07T02:40:37.382Z,13.86
2019-06-07T02:41:38.762Z,13.85
2019-06-07T02:42:41.768Z,13.92
2019-06-07T02:43:37.077Z,13.86
2019-06-07T02:44:38.965Z,13.92
2019-06-07T02:45:42.571Z,13.92
2019-06-07T02:46:45.869Z,13.79
2019-06-07T02:47:37.970Z,13.90
2019-06-07T02:48:39.883Z,13.79
2019-06-07T02:49:40.954Z,13.78
2019-06-07T02:50:38.273Z,13.75
2019-06-07T02:51:41.142Z,13.77
2019-06-07T02:52:40.334Z,13.74
2019-06-07T02:53:40.040Z,13.72
2019-06-07T02:54:39.770Z,13.75
2019-06-07T02:56:26.245Z,13.79
2019-06-07T02:56:48.839Z,13.77
2019-06-07T02:57:36.972Z,13.74
2019-06-07T02:58:41.260Z,13.79
2019-06-07T03:00:03.147Z,13.74
2019-06-07T03:00:59.884Z,13.72
2019-06-07T03:01:41.164Z,13.68
2019-06-07T03:02:41.026Z,13.77
2019-06-07T03:03:39.594Z,13.71
2019-06-07T03:04:41.514Z,13.75
2019-06-07T03:05:38.800Z,13.72
2019-06-07T03:06:39.362Z,13.74
2019-06-07T03:07:39.010Z,13.74
2019-06-07T03:08:36.613Z,13.75
2019-06-07T03:09:36.422Z,13.78
2019-06-07T03:10:34.806Z,13.75
2019-06-07T03:11:36.063Z,13.70
2019-06-07T03:12:35.469Z,13.71
2019-06-07T03:13:35.015Z,13.68
2019-06-07T03:14:35.137Z,13.70
2019-06-07T03:15:44.662Z,13.65
2019-06-07T03:16:37.281Z,13.65
2019-06-07T03:17:36.499Z,13.71
2019-06-07T03:18:36.257Z,13.68
2019-06-07T03:19:37.304Z,13.71
2019-06-07T03:20:36.278Z,13.77
2019-06-07T03:21:36.227Z,13.67
2019-06-07T03:22:38.922Z,13.56
2019-06-07T03:23:36.187Z,13.56
2019-06-07T03:24:36.232Z,13.60
2019-06-07T03:25:37.084Z,13.53
2019-06-07T03:26:42.503Z,13.54
2019-06-07T03:27:43.515Z,13.53
2019-06-07T03:28:37.488Z,13.57
2019-06-07T03:29:36.047Z,13.52
2019-06-07T03:30:39.875Z,13.50
2019-06-07T03:31:41.698Z,13.54
2019-06-07T03:32:45.715Z,13.53
2019-06-07T03:33:41.505Z,13.53
2019-06-07T03:34:42.177Z,13.57
2019-06-07T03:35:36.828Z,13.52
2019-06-07T03:36:35.364Z,13.53
2019-06-07T03:37:39.979Z,13.56
2019-06-07T03:38:35.336Z,13.49
2019-06-07T03:39:34.366Z,13.65
2019-06-07T03:40:36.837Z,13.70
2019-06-07T03:41:43.778Z,13.63
2019-06-07T03:42:38.343Z,13.59
2019-06-07T03:43:36.647Z,13.54
2019-06-07T03:44:37.778Z,13.53
2019-06-07T03:45:36.013Z,13.65
2019-06-07T03:46:40.580Z,13.72
2019-06-07T03:47:36.487Z,13.67
2019-06-07T03:48:37.832Z,13.65
2019-06-07T03:49:38.305Z,13.70
2019-06-07T03:50:38.689Z,13.74
2019-06-07T03:51:35.655Z,13.70
2019-06-07T03:52:37.123Z,13.72
2019-06-07T03:53:36.539Z,13.68
2019-06-07T03:54:36.971Z,13.68
2019-06-07T03:55:37.740Z,13.77
2019-06-07T03:56:36.063Z,13.56
2019-06-07T03:58:24.762Z,13.67
2019-06-07T03:58:41.277Z,13.78
2019-06-07T03:59:37.582Z,13.75
2019-06-07T04:00:37.283Z,13.72
2019-06-07T04:01:35.563Z,13.77
2019-06-07T04:02:37.753Z,13.71
2019-06-07T04:03:43.605Z,13.71
2019-06-07T04:04:36.979Z,13.86
2019-06-07T04:05:38.620Z,13.85
2019-06-07T04:06:36.839Z,13.79
2019-06-07T04:07:36.933Z,13.83
2019-06-07T04:08:38.271Z,13.79
2019-06-07T04:09:37.216Z,13.81
2019-06-07T04:10:54.957Z,13.79
2019-06-07T04:11:35.175Z,13.83
2019-06-07T04:12:38.599Z,13.89
2019-06-07T04:13:37.483Z,13.87
2019-06-07T04:14:35.152Z,13.83
2019-06-07T04:15:36.071Z,13.89
2019-06-07T04:16:38.088Z,13.83
2019-06-07T04:17:36.453Z,13.96
2019-06-07T04:18:36.459Z,13.93
2019-06-07T04:19:38.233Z,13.96
2019-06-07T04:20:36.127Z,13.96
2019-06-07T04:21:35.147Z,14.00
2019-06-07T04:22:38.860Z,13.95
2019-06-07T04:23:37.982Z,13.97
2019-06-07T04:24:38.476Z,13.97
2019-06-07T04:25:37.162Z,14.04
2019-06-07T04:26:35.051Z,13.96
2019-06-07T04:27:35.527Z,13.97
2019-06-07T04:29:26.106Z,13.95
2019-06-07T04:29:59.757Z,13.97
2019-06-07T04:30:36.524Z,14.04
2019-06-07T04:31:34.479Z,14.03
2019-06-07T04:32:34.337Z,14.10
2019-06-07T04:33:35.013Z,13.96
2019-06-07T04:34:36.437Z,13.99
2019-06-07T04:35:34.809Z,13.96
2019-06-07T04:36:46.078Z,13.95
2019-06-07T04:37:36.142Z,13.96
2019-06-07T04:38:37.915Z,13.90
2019-06-07T04:39:37.792Z,13.97
2019-06-07T04:40:36.155Z,13.97
2019-06-07T04:41:33.664Z,13.97
2019-06-07T04:42:35.098Z,13.97
2019-06-07T04:43:35.513Z,13.95
2019-06-07T04:44:35.031Z,13.97
2019-06-07T04:45:40.196Z,13.95
2019-06-07T04:46:35.223Z,13.99
2019-06-07T04:47:36.757Z,13.92
2019-06-07T04:48:35.187Z,13.96
2019-06-07T04:49:37.262Z,13.97
2019-06-07T04:50:36.091Z,13.95
2019-06-07T04:51:34.059Z,13.99
2019-06-07T04:52:36.155Z,13.96
2019-06-07T04:53:35.280Z,14.04
2019-06-07T04:54:33.449Z,14.04
2019-06-07T04:55:34.143Z,13.95
2019-06-07T04:56:37.426Z,14.00
2019-06-07T04:57:35.428Z,13.93
2019-06-07T04:58:33.385Z,13.93
2019-06-07T05:00:09.444Z,13.97
2019-06-07T05:00:49.732Z,14.03
2019-06-07T05:01:34.864Z,13.95
2019-06-07T05:02:36.841Z,14.10
2019-06-07T05:03:37.060Z,14.07
2019-06-07T05:04:34.967Z,14.05
2019-06-07T05:05:34.464Z,14.14
2019-06-07T05:06:34.938Z,14.12
2019-06-07T05:07:34.610Z,14.12
2019-06-07T05:08:35.141Z,14.18
2019-06-07T05:09:35.329Z,14.17
2019-06-07T05:10:35.120Z,14.14
2019-06-07T05:11:35.857Z,14.23
2019-06-07T05:12:35.288Z,14.26
2019-06-07T05:13:37.761Z,14.28
2019-06-07T05:14:34.568Z,14.30
2019-06-07T05:15:34.234Z,14.26
2019-06-07T05:16:35.193Z,14.26
2019-06-07T05:17:34.760Z,14.33
2019-06-07T05:18:33.663Z,14.28
2019-06-07T05:19:35.202Z,14.28
2019-06-07T05:20:34.251Z,14.35
2019-06-07T05:21:57.135Z,14.32
2019-06-07T05:22:34.899Z,14.40
2019-06-07T05:24:37.670Z,14.40
2019-06-07T05:25:34.068Z,14.36
2019-06-07T05:26:33.056Z,14.37
2019-06-07T05:27:34.342Z,14.47
2019-06-07T05:28:32.670Z,14.44
2019-06-07T05:29:34.807Z,14.43
2019-06-07T05:31:04.716Z,14.51
2019-06-07T05:31:36.893Z,14.50
2019-06-07T05:32:34.974Z,14.48
2019-06-07T05:33:35.481Z,14.47
2019-06-07T05:34:34.067Z,14.44
2019-06-07T05:35:33.108Z,14.47
2019-06-07T05:36:36.661Z,14.53
2019-06-07T05:37:33.898Z,14.54
2019-06-07T05:38:33.475Z,14.51
2019-06-07T05:39:36.358Z,14.48
2019-06-07T05:40:33.018Z,14.60
2019-06-07T05:41:34.163Z,14.66
2019-06-07T05:42:34.554Z,14.63
2019-06-07T05:43:35.097Z,14.63
2019-06-07T05:44:34.107Z,14.63
2019-06-07T05:45:32.505Z,14.63
2019-06-07T05:46:33.812Z,14.69
2019-06-07T05:47:39.996Z,14.73
2019-06-07T05:48:34.145Z,14.72
2019-06-07T05:49:32.928Z,14.70
2019-06-07T05:50:41.401Z,14.73
2019-06-07T05:51:34.739Z,14.88
2019-06-07T05:52:33.233Z,14.86
2019-06-07T05:53:32.887Z,14.94
2019-06-07T05:54:35.067Z,14.89
2019-06-07T05:55:32.720Z,14.91
2019-06-07T05:56:33.318Z,14.96
2019-06-07T05:57:36.054Z,15.03
2019-06-07T05:58:33.115Z,15.11
2019-06-07T05:59:33.735Z,15.03
2019-06-07T06:00:34.694Z,15.18
2019-06-07T06:01:58.941Z,15.06
2019-06-07T06:02:50.338Z,15.06
2019-06-07T06:03:35.011Z,15.06
2019-06-07T06:04:33.729Z,15.14
2019-06-07T06:05:36.421Z,15.19
2019-06-07T06:06:33.901Z,15.19
2019-06-07T06:07:32.038Z,15.10
2019-06-07T06:08:32.028Z,15.10
2019-06-07T06:09:31.990Z,15.21
2019-06-07T06:10:32.005Z,15.21
2019-06-07T06:11:45.715Z,15.25
2019-06-07T06:12:38.232Z,15.28
2019-06-07T06:13:34.097Z,15.22
2019-06-07T06:14:31.937Z,15.15
2019-06-07T06:15:42.313Z,15.31
2019-06-07T06:16:32.924Z,15.27
2019-06-07T06:17:31.907Z,15.29
2019-06-07T06:18:31.906Z,15.36
2019-06-07T06:19:32.012Z,15.31
2019-06-07T06:20:33.149Z,15.39
2019-06-07T06:21:32.886Z,15.29
2019-06-07T06:22:31.860Z,15.33
2019-06-07T06:23:31.850Z,15.28
2019-06-07T06:24:31.837Z,15.36
2019-06-07T06:25:33.831Z,15.39
2019-06-07T06:26:31.837Z,15.39
2019-06-07T06:28:32.804Z,15.44
2019-06-07T06:29:31.859Z,15.44
2019-06-07T06:30:31.796Z,15.54
2019-06-07T06:31:31.786Z,15.49
2019-06-07T06:32:56.811Z,15.57
2019-06-07T06:33:34.832Z,15.54
2019-06-07T06:34:31.722Z,15.54
2019-06-07T06:35:31.746Z,15.61
2019-06-07T06:36:31.733Z,15.65
2019-06-07T06:37:31.706Z,15.57
2019-06-07T06:38:31.679Z,15.73
2019-06-07T06:39:31.877Z,15.79
2019-06-07T06:40:31.656Z,15.72
2019-06-07T06:41:48.444Z,15.88
2019-06-07T06:42:32.701Z,15.91
2019-06-07T06:43:31.636Z,15.84
2019-06-07T06:44:31.627Z,15.86
2019-06-07T06:45:31.624Z,16.01
2019-06-07T06:46:38.773Z,16.09
2019-06-07T06:47:32.624Z,16.04
2019-06-07T06:48:31.595Z,16.15
2019-06-07T06:49:31.678Z,16.10
2019-06-07T06:50:31.579Z,16.16
2019-06-07T06:51:31.572Z,16.15
2019-06-07T06:52:31.540Z,16.33
2019-06-07T06:53:31.533Z,16.26
2019-06-07T06:54:40.571Z,16.42
2019-06-07T06:55:32.523Z,16.43
2019-06-07T06:56:31.538Z,16.41
2019-06-07T06:57:31.518Z,16.42
2019-06-07T06:59:18.731Z,16.50
2019-06-07T06:59:39.350Z,16.42
2019-06-07T07:00:43.541Z,16.46
2019-06-07T07:01:32.448Z,16.60
2019-06-07T07:02:31.508Z,16.57
2019-06-07T07:03:56.794Z,16.56
2019-06-07T07:04:32.400Z,16.60
2019-06-07T07:05:31.414Z,16.69
2019-06-07T07:06:31.384Z,16.65
2019-06-07T07:07:31.420Z,16.74
2019-06-07T07:08:31.392Z,16.66
2019-06-07T07:09:31.607Z,16.76
2019-06-07T07:10:31.333Z,16.81
2019-06-07T07:11:31.330Z,16.78
2019-06-07T07:12:31.339Z,16.87
2019-06-07T07:13:31.384Z,16.86
2019-06-07T07:14:31.298Z,16.86
2019-06-07T07:15:31.374Z,16.91
2019-06-07T07:16:31.293Z,16.90
2019-06-07T07:17:47.669Z,16.99
2019-06-07T07:18:32.256Z,16.97
2019-06-07T07:19:31.248Z,17.05
2019-06-07T07:20:31.253Z,17.06
2019-06-07T07:21:31.214Z,17.14
2019-06-07T07:22:31.221Z,17.14
2019-06-07T07:23:31.248Z,17.11
2019-06-07T07:24:31.183Z,17.14
2019-06-07T07:25:31.219Z,17.26
2019-06-07T07:26:31.159Z,17.26
2019-06-07T07:27:31.187Z,17.29
2019-06-07T07:28:31.144Z,17.38
2019-06-07T07:29:31.136Z,17.24
2019-06-07T07:30:36.735Z,17.29
2019-06-07T07:31:32.118Z,17.30
2019-06-07T07:32:31.103Z,17.33
2019-06-07T07:34:20.584Z,17.39
2019-06-07T07:34:36.692Z,17.49
2019-06-07T07:35:32.105Z,17.51
2019-06-07T07:36:39.222Z,17.56
2019-06-07T07:37:32.079Z,17.63
2019-06-07T07:38:31.068Z,17.65
2019-06-07T07:39:31.092Z,17.56
2019-06-07T07:41:32.009Z,17.72
2019-06-07T07:42:31.021Z,17.71
2019-06-07T07:43:31.553Z,17.72
2019-06-07T07:44:30.999Z,17.74
2019-06-07T07:45:30.965Z,17.82
2019-06-07T07:46:30.975Z,17.83
2019-06-07T07:47:30.946Z,17.80
2019-06-07T07:48:30.969Z,17.80
2019-06-07T07:49:30.916Z,17.86
2019-06-07T07:50:31.025Z,17.94
2019-06-07T07:51:30.976Z,18.00
2019-06-07T07:52:30.890Z,17.94
2019-06-07T07:53:47.811Z,17.95
2019-06-07T07:54:31.872Z,18.10
2019-06-07T07:55:30.923Z,18.03
2019-06-07T07:56:30.844Z,18.10
2019-06-07T07:57:30.844Z,18.10
2019-06-07T07:58:30.828Z,18.11
2019-06-07T07:59:41.988Z,18.18
2019-06-07T08:01:31.792Z,18.26
2019-06-07T08:02:30.998Z,18.25
2019-06-07T08:03:30.772Z,18.23
2019-06-07T08:05:13.100Z,18.28
2019-06-07T08:05:42.546Z,18.31
2019-06-07T08:06:31.740Z,18.33
2019-06-07T08:07:30.746Z,18.37
2019-06-07T08:08:30.723Z,18.38
2019-06-07T08:09:30.798Z,18.44
2019-06-07T08:10:30.711Z,18.52
2019-06-07T08:11:30.693Z,18.47
2019-06-07T08:12:54.751Z,18.52
2019-06-07T08:13:31.849Z,18.41
2019-06-07T08:14:30.671Z,18.52
2019-06-07T08:15:30.676Z,18.52
2019-06-07T08:16:30.661Z,18.45
2019-06-07T08:17:30.629Z,18.55
2019-06-07T08:18:30.675Z,18.58
2019-06-07T08:19:30.610Z,18.60
2019-06-07T08:20:30.610Z,18.65
2019-06-07T08:21:30.666Z,18.63
2019-06-07T08:22:30.604Z,18.63
2019-06-07T08:23:30.622Z,18.75
2019-06-07T08:24:30.611Z,18.70
2019-06-07T08:25:30.583Z,18.78
2019-06-07T08:26:30.549Z,18.77
2019-06-07T08:27:30.525Z,18.83
2019-06-07T08:28:30.643Z,18.81
2019-06-07T08:29:44.188Z,18.95
2019-06-07T08:30:50.661Z,18.93
2019-06-07T08:31:31.477Z,18.96
2019-06-07T08:32:30.882Z,18.86
2019-06-07T08:33:30.483Z,19.02
2019-06-07T08:34:30.468Z,19.09
2019-06-07T08:36:03.589Z,19.02
2019-06-07T08:36:42.103Z,19.07
2019-06-07T08:38:14.033Z,19.15
2019-06-07T08:38:46.901Z,19.19
2019-06-07T08:39:31.404Z,19.16
2019-06-07T08:40:30.540Z,19.22
2019-06-07T08:41:30.401Z,19.19
2019-06-07T08:42:37.748Z,19.26
2019-06-07T08:43:31.359Z,19.15
2019-06-07T08:44:30.363Z,19.27
2019-06-07T08:45:30.436Z,19.31
2019-06-07T08:46:30.330Z,19.39
2019-06-07T08:47:30.330Z,19.37
2019-06-07T08:48:30.536Z,19.41
2019-06-07T08:49:30.289Z,19.47
2019-06-07T08:50:30.404Z,19.48
2019-06-07T08:51:30.294Z,19.44
2019-06-07T08:52:30.290Z,19.41
2019-06-07T08:53:30.279Z,19.55
2019-06-07T08:54:30.240Z,19.51
2019-06-07T08:55:30.274Z,19.49
2019-06-07T08:56:30.218Z,19.51
2019-06-07T08:57:30.232Z,19.55
2019-06-07T08:58:30.208Z,19.58
2019-06-07T08:59:30.193Z,19.58
2019-06-07T09:00:45.622Z,19.58
2019-06-07T09:01:31.168Z,19.63
2019-06-07T09:02:30.154Z,19.76
2019-06-07T09:03:30.191Z,19.69
2019-06-07T09:04:30.141Z,19.74
2019-06-07T09:05:30.155Z,19.74
2019-06-07T09:07:31.108Z,19.77
2019-06-07T09:08:31.029Z,19.81
2019-06-07T09:09:30.075Z,19.84
2019-06-07T09:10:30.243Z,19.86
2019-06-07T09:11:30.108Z,19.82
2019-06-07T09:12:30.086Z,19.85
2019-06-07T09:13:30.053Z,19.88
2019-06-07T09:14:30.024Z,19.99
2019-06-07T09:15:30.071Z,20.00
2019-06-07T09:16:30.012Z,20.03
2019-06-07T09:17:29.985Z,20.10
2019-06-07T09:18:42.214Z,20.10
2019-06-07T09:19:30.964Z,20.06
2019-06-07T09:20:36.726Z,20.13
2019-06-07T09:21:30.975Z,20.28
2019-06-07T09:22:29.978Z,20.28
2019-06-07T09:23:29.960Z,20.26
2019-06-07T09:24:29.927Z,20.32
2019-06-07T09:25:29.971Z,20.31
2019-06-07T09:26:29.906Z,20.34
2019-06-07T09:27:29.898Z,20.47
2019-06-07T09:28:29.881Z,20.40
2019-06-07T09:29:29.860Z,20.55
2019-06-07T09:30:29.847Z,20.50
2019-06-07T09:31:51.382Z,20.55
2019-06-07T09:32:30.906Z,20.65
2019-06-07T09:33:29.824Z,20.66
2019-06-07T09:34:29.871Z,20.63
2019-06-07T09:35:29.821Z,20.63
2019-06-07T09:36:29.788Z,20.77
2019-06-07T09:38:30.800Z,20.84
2019-06-07T09:39:29.774Z,20.81
2019-06-07T09:40:29.737Z,20.80
2019-06-07T09:41:46.794Z,20.90
2019-06-07T09:42:30.737Z,21.03
2019-06-07T09:44:01.929Z,21.07
2019-06-07T09:44:30.710Z,21.02
2019-06-07T09:45:29.701Z,21.20
2019-06-07T09:46:29.699Z,21.15
2019-06-07T09:47:32.944Z,21.15
2019-06-07T09:49:33.212Z,21.32
2019-06-07T09:50:29.636Z,21.30
2019-06-07T09:51:29.630Z,21.29
2019-06-07T09:52:29.612Z,21.30
2019-06-07T09:53:29.618Z,21.36
2019-06-07T09:55:03.961Z,21.42
2019-06-07T09:55:30.586Z,21.46
2019-06-07T09:56:29.577Z,21.58
2019-06-07T09:57:29.616Z,21.58
2019-06-07T09:58:51.343Z,21.69
2019-06-07T09:59:30.546Z,21.64
2019-06-07T10:00:44.298Z,21.69
2019-06-07T10:01:30.545Z,21.76
2019-06-07T10:02:29.578Z,21.85
2019-06-07T10:03:29.539Z,21.77
2019-06-07T10:04:31.574Z,21.77
2019-06-07T10:05:29.476Z,21.93
2019-06-07T10:06:29.462Z,21.95
2019-06-07T10:07:32.022Z,21.92
2019-06-07T10:11:29.469Z,21.99
2019-06-07T10:12:29.417Z,22.18
2019-06-07T10:13:29.423Z,22.10
2019-06-07T10:14:29.408Z,22.14
2019-06-07T10:15:29.385Z,22.22
2019-06-07T10:16:37.347Z,22.13
2019-06-07T10:17:30.347Z,22.26
2019-06-07T10:18:29.361Z,22.20
2019-06-07T10:19:29.343Z,22.22
2019-06-07T10:20:29.334Z,22.17
2019-06-07T10:21:29.342Z,22.26
2019-06-07T10:22:29.302Z,22.26
2019-06-07T10:23:29.295Z,22.32
2019-06-07T10:24:29.283Z,22.18
2019-06-07T10:25:29.350Z,22.32
2019-06-07T10:26:29.326Z,22.33
2019-06-07T10:27:29.279Z,22.43
2019-06-07T10:28:29.232Z,22.39
2019-06-07T10:29:29.224Z,22.44
2019-06-07T10:30:29.209Z,22.45
2019-06-07T10:31:29.212Z,22.47
2019-06-07T10:32:29.276Z,22.47
2019-06-07T10:33:29.203Z,22.47
2019-06-07T10:34:29.170Z,22.47
2019-06-07T10:35:29.156Z,22.50
2019-06-07T10:36:29.151Z,22.47
2019-06-07T10:37:29.139Z,22.51
2019-06-07T10:38:29.142Z,22.44
2019-06-07T10:39:29.169Z,22.47
2019-06-07T10:40:29.168Z,22.60
2019-06-07T10:41:29.205Z,22.62
2019-06-07T10:42:29.175Z,22.60
2019-06-07T10:43:29.145Z,22.59
2019-06-07T10:44:29.238Z,22.69
2019-06-07T10:45:29.133Z,22.63
2019-06-07T10:46:29.102Z,22.70
2019-06-07T10:47:29.090Z,22.69
2019-06-07T10:48:29.029Z,22.83
2019-06-07T10:49:29.015Z,22.75
2019-06-07T10:50:29.076Z,22.78
2019-06-07T10:51:29.151Z,22.75
2019-06-07T10:52:28.987Z,22.76
2019-06-07T10:53:29.051Z,22.84
2019-06-07T10:54:30.822Z,22.85
2019-06-07T10:55:28.963Z,22.88
2019-06-07T10:56:28.981Z,22.94
2019-06-07T10:57:28.926Z,22.94
2019-06-07T10:58:29.055Z,22.94
2019-06-07T10:59:28.915Z,23.00
2019-06-07T11:00:28.948Z,22.99
2019-06-07T11:01:28.916Z,22.96
2019-06-07T11:02:28.924Z,23.08
2019-06-07T11:03:28.866Z,22.91
2019-06-07T11:04:28.864Z,23.00
2019-06-07T11:05:28.846Z,23.10
2019-06-07T11:06:28.852Z,23.17
2019-06-07T11:07:28.838Z,23.17
2019-06-07T11:08:28.820Z,23.13
2019-06-07T11:09:28.808Z,23.17
2019-06-07T11:10:28.799Z,23.24
2019-06-07T11:11:28.797Z,23.31
2019-06-07T11:12:28.769Z,23.23
2019-06-07T11:13:28.809Z,23.36
2019-06-07T11:14:28.787Z,23.24
2019-06-07T11:15:28.761Z,23.21
2019-06-07T11:16:28.750Z,23.36
2019-06-07T11:17:28.759Z,23.31
2019-06-07T11:18:28.712Z,23.28
2019-06-07T11:19:28.721Z,23.34
2019-06-07T11:20:28.719Z,23.27
2019-06-07T11:21:28.719Z,23.39
2019-06-07T11:22:28.696Z,23.32
2019-06-07T11:23:28.752Z,23.36
2019-06-07T11:24:28.755Z,23.43
2019-06-07T11:25:28.650Z,23.31
2019-06-07T11:26:28.683Z,23.20
2019-06-07T11:27:28.614Z,23.34
2019-06-07T11:28:28.689Z,23.20
2019-06-07T11:29:28.689Z,23.32
2019-06-07T11:30:28.733Z,23.36
2019-06-07T11:31:28.664Z,23.36
2019-06-07T11:32:28.651Z,23.37
2019-06-07T11:33:28.698Z,23.47
2019-06-07T11:34:28.551Z,23.47
2019-06-07T11:35:28.534Z,23.51
2019-06-07T11:36:28.614Z,23.55
2019-06-07T11:37:28.565Z,23.56
2019-06-07T11:38:28.495Z,23.58
2019-06-07T11:39:28.495Z,23.71
2019-06-07T11:40:35.521Z,23.77
2019-06-07T11:41:29.465Z,23.84
2019-06-07T11:42:28.460Z,23.91
2019-06-07T11:43:28.445Z,23.92
2019-06-07T11:44:28.443Z,23.86
2019-06-07T11:45:28.506Z,24.02
2019-06-07T11:46:28.414Z,24.08
2019-06-07T11:47:28.441Z,24.05
2019-06-07T11:48:28.404Z,24.10
2019-06-07T11:49:28.436Z,24.03
2019-06-07T11:50:28.366Z,24.16
2019-06-07T11:51:28.484Z,24.23
2019-06-07T11:52:28.428Z,24.20
2019-06-07T11:53:28.402Z,24.21
2019-06-07T11:54:28.357Z,24.24
2019-06-07T11:55:28.355Z,24.23
2019-06-07T11:56:28.329Z,24.21
2019-06-07T11:57:28.293Z,24.18
2019-06-07T11:58:28.298Z,24.36
2019-06-07T11:59:28.271Z,24.39
2019-06-07T12:00:28.348Z,24.30
2019-06-07T12:01:28.255Z,24.35
2019-06-07T12:02:28.247Z,24.40
2019-06-07T12:03:28.251Z,24.38
2019-06-07T12:04:34.305Z,24.33
2019-06-07T12:05:29.244Z,24.38
2019-06-07T12:06:28.201Z,24.35
2019-06-07T12:07:28.351Z,24.45
2019-06-07T12:08:28.179Z,24.39
2019-06-07T12:09:28.235Z,24.53
2019-06-07T12:10:41.803Z,24.48
2019-06-07T12:11:29.157Z,24.48
2019-06-07T12:12:28.175Z,24.63
2019-06-07T12:13:28.142Z,24.63
2019-06-07T12:14:28.183Z,24.74
2019-06-07T12:15:28.136Z,24.73
2019-06-07T12:16:28.140Z,24.74
2019-06-07T12:17:28.095Z,24.74
2019-06-07T12:18:28.113Z,24.85
2019-06-07T12:19:28.065Z,24.85
2019-06-07T12:20:28.087Z,24.99
2019-06-07T12:21:28.049Z,24.89
2019-06-07T12:22:28.062Z,24.96
2019-06-07T12:23:28.070Z,24.95
2019-06-07T12:24:28.011Z,24.93
2019-06-07T12:25:28.152Z,25.01
2019-06-07T12:26:27.990Z,25.06
2019-06-07T12:27:27.982Z,25.06
2019-06-07T12:28:28.018Z,25.17
2019-06-07T12:29:28.278Z,25.17
2019-06-07T12:30:28.214Z,25.18
2019-06-07T12:31:27.948Z,25.26
2019-06-07T12:32:27.953Z,25.25
2019-06-07T12:33:27.929Z,25.35
2019-06-07T12:34:27.962Z,25.29
2019-06-07T12:35:27.950Z,25.33
2019-06-07T12:36:28.027Z,25.40
2019-06-07T12:37:42.639Z,25.51
2019-06-07T12:38:28.869Z,25.55
2019-06-07T12:39:27.883Z,25.63
2019-06-07T12:40:32.209Z,25.69
2019-06-07T12:41:27.866Z,25.66
2019-06-07T12:42:27.826Z,25.70
2019-06-07T12:43:27.810Z,25.77
2019-06-07T12:44:27.807Z,25.69
2019-06-07T12:45:42.795Z,25.80
2019-06-07T12:46:28.877Z,25.80
2019-06-07T12:47:27.810Z,25.78
2019-06-07T12:48:27.787Z,25.84
2019-06-07T12:49:27.822Z,25.81
2019-06-07T12:50:41.778Z,25.85
2019-06-07T12:51:28.878Z,25.83
2019-06-07T12:52:27.762Z,25.78
2019-06-07T12:53:28.381Z,25.72
2019-06-07T12:54:27.752Z,25.77
2019-06-07T12:55:27.754Z,25.85
2019-06-07T12:56:27.714Z,25.90
2019-06-07T12:57:27.675Z,25.91
2019-06-07T12:58:34.507Z,25.90
2019-06-07T12:59:28.661Z,25.91
2019-06-07T13:00:27.686Z,25.88
2019-06-07T13:01:27.650Z,25.88
2019-06-07T13:02:27.612Z,25.99
2019-06-07T13:03:27.620Z,26.03